Time;durP1;ratioP1;P1;durP2;ratioP2;P2;SDS_P1;SDS_P2;PMS_P1;PMS_P2;Temp;Humidity;BMP_temperature;BMP_pressure;BME280_temperature;BME280_humidity;BME280_pressure;Samples;Min_cycle;Max_cycle;Signal;HPM_P1;HPM_P2
2020/12/05 00:02:19;;;;;;;19.47;14.90;;;;;;;-2.42;91.30;92977.59;5042660;28;20837;-78
2020/12/05 00:04:46;;;;;;;25.63;19.27;;;;;;;-2.60;91.76;92955.44;5039071;28;20548;-78
2020/12/05 00:07:14;;;;;;;19.33;14.80;;;;;;;-2.61;92.46;92971.91;5024285;28;20477;-78
2020/12/05 00:09:41;;;;;;;25.40;16.37;;;;;;;-2.58;92.38;92968.16;5043606;28;20525;-78
2020/12/05 00:12:10;;;;;;;17.33;14.73;;;;;;;-2.79;92.74;92963.63;5035841;28;20535;-78
2020/12/05 00:14:54;;;;;;;21.30;17.93;;;;;;;-2.73;92.48;92983.59;5042564;28;20453;-78
2020/12/05 00:17:21;;;;;;;21.73;16.93;;;;;;;-2.66;91.95;92989.66;5043446;28;20492;-78
2020/12/05 00:19:49;;;;;;;17.47;15.30;;;;;;;-2.77;91.81;92990.06;5043365;28;21022;-78
2020/12/05 00:22:17;;;;;;;19.37;15.53;;;;;;;-2.81;92.41;92996.53;5033673;28;20527;-78
2020/12/05 00:24:44;;;;;;;25.07;17.80;;;;;;;-2.82;92.36;92969.13;5042689;28;20544;-78
2020/12/05 00:27:11;;;;;;;22.83;16.90;;;;;;;-2.82;92.66;92947.69;5029594;28;20989;-77
2020/12/05 00:29:37;;;;;;;22.17;15.23;;;;;;;-2.85;92.96;92946.22;5042182;28;21059;-78
2020/12/05 00:32:06;;;;;;;22.53;15.23;;;;;;;-2.91;92.62;92952.06;5041285;28;20986;-77
2020/12/05 00:34:34;;;;;;;24.93;20.20;;;;;;;-2.89;92.99;92932.06;5044980;28;20972;-77
2020/12/05 00:37:01;;;;;;;18.43;13.53;;;;;;;-2.95;92.63;92971.44;5036093;28;20457;-78
2020/12/05 00:39:28;;;;;;;17.17;15.23;;;;;;;-2.87;92.34;92989.47;5045643;28;20480;-77
2020/12/05 00:41:55;;;;;;;21.03;16.90;;;;;;;-2.92;92.44;92984.00;5049202;28;20495;-77
2020/12/05 00:44:22;;;;;;;18.50;15.33;;;;;;;-2.96;93.04;92975.78;5044709;28;20901;-77
2020/12/05 00:46:49;;;;;;;24.70;16.90;;;;;;;-3.06;92.58;92982.94;5029789;28;20733;-77
2020/12/05 00:49:16;;;;;;;23.43;14.60;;;;;;;-2.94;92.43;93001.41;5028774;28;20466;-77
2020/12/05 00:51:47;;;;;;;16.57;14.73;;;;;;;-2.86;92.36;93027.19;5021595;28;20450;-77
2020/12/05 00:54:14;;;;;;;22.90;17.10;;;;;;;-2.89;91.96;93030.13;5046814;28;20488;-77
2020/12/05 00:56:41;;;;;;;27.20;17.60;;;;;;;-2.71;91.96;93016.97;5057770;28;20464;-77
2020/12/05 00:59:08;;;;;;;23.60;18.70;;;;;;;-2.69;90.94;93015.81;5046253;28;20548;-77
2020/12/05 01:01:35;;;;;;;27.53;16.93;;;;;;;-2.97;90.85;93015.47;5047424;28;20454;-77
2020/12/05 01:04:02;;;;;;;27.77;18.67;;;;;;;-3.13;91.74;93022.44;5045792;28;21053;-78
2020/12/05 01:06:30;;;;;;;24.10;17.80;;;;;;;-3.03;92.02;93039.34;5043551;28;20493;-78
2020/12/05 01:08:58;;;;;;;23.47;18.03;;;;;;;-2.71;92.23;93035.84;5029118;28;20461;-78
2020/12/05 01:11:24;;;;;;;21.17;18.27;;;;;;;-2.73;91.18;93047.31;5045367;28;20556;-77
2020/12/05 01:13:51;;;;;;;20.63;18.10;;;;;;;-2.86;90.97;93050.41;5036815;28;21077;-77
2020/12/05 01:16:19;;;;;;;25.03;19.90;;;;;;;-2.74;91.22;93053.41;5046741;28;20496;-77
2020/12/05 01:18:46;;;;;;;27.17;16.60;;;;;;;-2.77;91.06;93054.56;5043346;28;20549;-77
2020/12/05 01:21:15;;;;;;;21.90;17.10;;;;;;;-2.84;91.60;93053.63;5023905;28;20489;-77
2020/12/05 01:23:42;;;;;;;22.63;19.17;;;;;;;-2.81;91.84;93037.03;5045588;28;21041;-77
2020/12/05 01:26:10;;;;;;;26.37;18.97;;;;;;;-2.91;92.11;93053.50;5047856;28;20548;-77
2020/12/05 01:28:37;;;;;;;30.83;20.70;;;;;;;-2.94;92.30;93068.50;5041257;28;20545;-77
2020/12/05 01:31:05;;;;;;;28.43;20.20;;;;;;;-2.99;92.61;93081.09;5045659;28;20473;-77
2020/12/05 01:33:32;;;;;;;26.90;20.17;;;;;;;-3.01;92.86;93086.44;5044088;28;20549;-78
2020/12/05 01:36:01;;;;;;;24.63;17.30;;;;;;;-2.90;93.09;93095.59;5033475;28;20545;-77
2020/12/05 01:38:28;;;;;;;25.10;18.77;;;;;;;-2.98;92.26;93099.00;5040408;28;20573;-77
2020/12/05 01:40:57;;;;;;;24.97;17.00;;;;;;;-3.09;92.08;93085.66;5050979;28;20468;-77
2020/12/05 01:43:26;;;;;;;24.90;18.53;;;;;;;-3.20;92.07;93079.03;5042990;28;20493;-78
2020/12/05 01:45:55;;;;;;;25.70;19.03;;;;;;;-3.08;92.58;93105.31;5032550;28;20553;-77
2020/12/05 01:48:22;;;;;;;28.20;19.47;;;;;;;-3.04;92.83;93107.38;5045154;28;20473;-77
2020/12/05 01:50:49;;;;;;;27.57;19.43;;;;;;;-3.01;92.35;93101.13;5026890;28;20601;-77
2020/12/05 01:53:17;;;;;;;28.27;18.60;;;;;;;-3.00;93.16;93092.41;5032962;28;20562;-77
2020/12/05 01:55:45;;;;;;;26.97;19.70;;;;;;;-2.95;92.63;93121.06;5046788;28;20816;-77
2020/12/05 01:58:12;;;;;;;29.27;20.93;;;;;;;-2.91;93.01;93148.97;5041366;28;20978;-77
2020/12/05 02:00:41;;;;;;;26.80;19.70;;;;;;;-2.86;92.82;93153.63;5046458;28;21037;-77
2020/12/05 02:03:08;;;;;;;26.90;19.80;;;;;;;-2.53;91.84;93158.72;5045970;28;20541;-77
2020/12/05 02:05:54;;;;;;;26.17;18.30;;;;;;;-2.51;90.35;93147.25;5043517;28;20470;-77
2020/12/05 02:08:28;;;;;;;21.10;17.47;;;;;;;-2.52;89.62;93165.50;5041406;28;20469;-77
2020/12/05 02:10:56;;;;;;;25.43;17.83;;;;;;;-2.79;89.00;93159.75;5045895;28;20557;-77
2020/12/05 02:13:29;;;;;;;23.37;18.23;;;;;;;-2.85;90.04;93162.97;5041634;28;20969;-77
2020/12/05 02:15:58;;;;;;;33.27;20.73;;;;;;;-2.89;90.09;93195.25;5045069;28;20553;-77
2020/12/05 02:18:27;;;;;;;24.60;18.40;;;;;;;-3.05;90.71;93190.91;5040310;28;20509;-77
2020/12/05 02:20:58;;;;;;;22.10;16.37;;;;;;;-3.03;91.24;93193.31;5040561;28;20461;-77
2020/12/05 02:23:27;;;;;;;26.80;18.10;;;;;;;-3.02;92.25;93156.22;5024197;28;20509;-77
2020/12/05 02:26:00;;;;;;;28.13;17.90;;;;;;;-2.94;92.59;93167.34;5040216;28;20725;-77
2020/12/05 02:28:27;;;;;;;22.60;17.00;;;;;;;-2.94;92.92;93159.59;5042971;28;20470;-77
2020/12/05 02:30:55;;;;;;;24.53;19.20;;;;;;;-2.73;93.58;93178.94;5046117;28;20983;-77
2020/12/05 02:33:22;;;;;;;24.00;17.73;;;;;;;-2.59;93.91;93178.25;5025523;28;20481;-77
2020/12/05 02:35:49;;;;;;;25.60;19.40;;;;;;;-2.44;93.95;93178.38;5044125;28;20539;-77
2020/12/05 02:38:20;;;;;;;22.93;18.83;;;;;;;-2.19;93.91;93187.66;5044250;28;20559;-78
2020/12/05 02:40:48;;;;;;;25.47;20.23;;;;;;;-2.07;93.38;93175.16;5044788;28;20538;-77
2020/12/05 02:43:15;;;;;;;27.27;18.87;;;;;;;-2.08;93.56;93163.22;5044538;28;20863;-77
2020/12/05 02:45:41;;;;;;;23.33;18.23;;;;;;;-2.00;93.34;93196.78;5045808;28;20548;-77
2020/12/05 02:48:09;;;;;;;25.73;18.83;;;;;;;-1.76;92.72;93219.91;5031890;28;20474;-78
2020/12/05 02:50:36;;;;;;;19.97;16.30;;;;;;;-1.66;91.98;93230.03;5025516;28;20536;-77
2020/12/05 02:53:03;;;;;;;20.50;16.67;;;;;;;-1.57;91.62;93254.88;5042544;28;20554;-77
2020/12/05 02:55:30;;;;;;;25.67;17.20;;;;;;;-1.50;91.48;93266.16;5045775;28;20524;-77
2020/12/05 02:57:58;;;;;;;17.67;15.17;;;;;;;-1.42;91.20;93269.69;5043994;28;20824;-78
2020/12/05 03:00:25;;;;;;;18.07;15.97;;;;;;;-1.50;90.89;93276.50;5043326;28;20466;-77
2020/12/05 03:02:52;;;;;;;23.47;14.63;;;;;;;-1.32;90.31;93329.78;5043206;28;20473;-77
2020/12/05 03:05:19;;;;;;;22.83;15.57;;;;;;;-1.26;90.14;93342.03;5031840;28;20560;-77
2020/12/05 03:07:46;;;;;;;19.40;16.10;;;;;;;-1.33;90.46;93338.50;5042997;28;20858;-77
2020/12/05 03:10:14;;;;;;;19.73;16.93;;;;;;;-1.22;90.05;93367.41;5043157;28;20472;-77
2020/12/05 03:12:41;;;;;;;20.90;15.70;;;;;;;-1.12;89.87;93368.97;5023033;28;20490;-78
2020/12/05 03:15:09;;;;;;;19.17;16.87;;;;;;;-1.16;90.05;93371.09;5041127;28;20565;-78
2020/12/05 03:17:36;;;;;;;20.30;14.77;;;;;;;-1.08;90.25;93399.53;5026564;28;20552;-78
2020/12/05 03:20:03;;;;;;;19.03;15.67;;;;;;;-1.06;89.85;93405.34;5043906;28;20532;-78
2020/12/05 03:22:30;;;;;;;17.87;13.87;;;;;;;-0.99;89.77;93414.06;5038306;28;20491;-78
2020/12/05 03:24:57;;;;;;;21.63;16.33;;;;;;;-0.94;89.88;93395.41;5022989;28;20470;-77
2020/12/05 03:27:24;;;;;;;20.93;18.73;;;;;;;-0.93;90.15;93404.78;5041093;28;20514;-77
2020/12/05 03:29:51;;;;;;;23.13;17.33;;;;;;;-0.87;90.64;93399.75;5031273;28;20536;-77
2020/12/05 03:32:21;;;;;;;18.47;15.70;;;;;;;-1.06;90.72;93391.59;5045068;28;20520;-77
2020/12/05 03:34:48;;;;;;;19.77;15.67;;;;;;;-0.98;91.08;93415.66;5043280;28;20465;-77
2020/12/05 03:37:15;;;;;;;18.30;16.13;;;;;;;-0.93;90.92;93422.91;5039821;28;20546;-77
2020/12/05 03:39:42;;;;;;;22.33;16.73;;;;;;;-0.86;91.34;93419.47;5043068;28;20677;-78
2020/12/05 03:42:09;;;;;;;20.47;17.47;;;;;;;-0.82;91.59;93434.66;5049215;28;20496;-78
2020/12/05 03:44:36;;;;;;;26.13;16.63;;;;;;;-0.83;91.68;93431.25;5044979;28;20476;-78
2020/12/05 03:47:04;;;;;;;21.43;15.97;;;;;;;-0.93;92.04;93410.75;5026098;28;20642;-77
2020/12/05 03:49:32;;;;;;;21.67;17.03;;;;;;;-0.98;92.19;93405.31;5042472;28;21014;-78
2020/12/05 03:52:00;;;;;;;23.13;17.20;;;;;;;-0.82;91.81;93424.31;5029214;28;20472;-77
2020/12/05 03:54:27;;;;;;;21.60;17.10;;;;;;;-0.59;91.54;93467.41;5042182;28;20764;-77
2020/12/05 03:56:56;;;;;;;18.90;14.60;;;;;;;-0.57;90.55;93490.53;5044252;28;20604;-77
2020/12/05 03:59:23;;;;;;;21.70;16.03;;;;;;;-0.63;90.36;93497.22;5037889;28;20471;-77
2020/12/05 04:01:50;;;;;;;22.20;15.27;;;;;;;-0.68;90.69;93503.88;5028038;28;20621;-77
2020/12/05 04:04:17;;;;;;;16.93;14.67;;;;;;;-0.69;91.24;93482.34;5044493;28;20485;-78
2020/12/05 04:06:44;;;;;;;19.17;17.07;;;;;;;-0.78;91.29;93498.09;5021781;28;20469;-77
2020/12/05 04:09:11;;;;;;;15.87;13.13;;;;;;;-0.66;91.16;93501.91;5039115;28;20468;-78
2020/12/05 04:11:40;;;;;;;18.60;14.90;;;;;;;-0.68;91.73;93509.06;5035764;28;20494;-77
2020/12/05 04:14:08;;;;;;;16.77;15.03;;;;;;;-0.59;91.86;93529.56;5037264;28;20521;-78
2020/12/05 04:16:36;;;;;;;22.23;15.97;;;;;;;-0.53;91.32;93522.91;5043411;28;21033;-77
2020/12/05 04:19:03;;;;;;;21.70;16.67;;;;;;;-0.45;91.17;93546.19;5026019;28;20580;-77
2020/12/05 04:21:30;;;;;;;17.83;16.03;;;;;;;-0.42;91.23;93551.03;5023005;28;20569;-77
2020/12/05 04:23:58;;;;;;;21.60;16.87;;;;;;;-0.31;91.13;93550.66;5038755;28;20548;-77
2020/12/05 04:26:25;;;;;;;20.90;16.13;;;;;;;-0.25;91.07;93546.59;5041058;28;20843;-77
2020/12/05 04:28:53;;;;;;;23.63;17.67;;;;;;;-0.22;91.38;93540.25;5024897;28;20784;-78
2020/12/05 04:31:20;;;;;;;23.00;15.60;;;;;;;-0.16;91.13;93539.56;5042902;28;20559;-79
2020/12/05 04:33:47;;;;;;;19.70;17.63;;;;;;;-0.11;91.20;93537.25;5042526;28;20954;-78
2020/12/05 04:36:14;;;;;;;17.20;15.07;;;;;;;-0.14;91.03;93506.50;5041103;28;20564;-78
2020/12/05 04:38:41;;;;;;;21.67;14.70;;;;;;;-0.21;91.32;93501.19;5044073;28;20458;-78
2020/12/05 04:41:08;;;;;;;16.33;14.27;;;;;;;-0.09;91.19;93540.47;5043403;28;21045;-78
2020/12/05 04:43:36;;;;;;;23.33;14.83;;;;;;;-0.03;90.55;93581.28;5036120;28;20506;-78
2020/12/05 04:46:03;;;;;;;18.47;13.90;;;;;;;-0.03;90.21;93581.28;5043318;28;20519;-79
2020/12/05 04:48:31;;;;;;;19.17;15.37;;;;;;;0.08;89.93;93598.25;5040391;28;20478;-78
2020/12/05 04:51:01;;;;;;;16.17;14.43;;;;;;;0.10;90.45;93585.94;5041835;28;20988;-78
2020/12/05 04:53:30;;;;;;;14.17;12.77;;;;;;;0.17;90.94;93564.31;5049701;28;20466;-79
2020/12/05 04:55:59;;;;;;;15.10;13.57;;;;;;;-0.06;90.89;93529.78;5043945;28;20601;-79
2020/12/05 04:58:28;;;;;;;17.93;14.10;;;;;;;-0.12;91.09;93515.72;5040949;28;20809;-79
2020/12/05 05:00:57;;;;;;;16.40;14.70;;;;;;;-0.19;91.00;93547.66;5040199;28;20817;-78
2020/12/05 05:03:26;;;;;;;16.20;12.80;;;;;;;-0.24;91.74;93550.78;5039998;28;20551;-78
2020/12/05 05:05:56;;;;;;;15.17;13.57;;;;;;;-0.34;91.48;93548.41;5040933;28;20589;-78
2020/12/05 05:08:25;;;;;;;17.83;13.93;;;;;;;-0.21;91.51;93563.41;5042132;28;20458;-78
2020/12/05 05:11:06;;;;;;;15.87;14.20;;;;;;;-0.38;91.00;93557.47;5036964;28;20806;-78
2020/12/05 05:13:48;;;;;;;15.67;13.33;;;;;;;-0.19;91.15;93623.66;5042408;28;20527;-78
2020/12/05 05:16:16;;;;;;;14.93;13.27;;;;;;;-0.32;90.93;93633.75;5047576;28;20489;-78
2020/12/05 05:18:43;;;;;;;16.17;13.73;;;;;;;-0.48;91.83;93611.28;5056912;28;20535;-79
2020/12/05 05:21:09;;;;;;;19.23;13.60;;;;;;;-0.43;91.46;93616.78;5022689;28;20465;-78
2020/12/05 05:23:37;;;;;;;16.37;13.03;;;;;;;-0.30;92.13;93627.41;5041490;28;20548;-79
2020/12/05 05:26:06;;;;;;;15.00;13.13;;;;;;;-0.29;91.94;93615.25;5037190;28;20546;-78
2020/12/05 05:28:37;;;;;;;12.77;11.23;;;;;;;-0.12;92.24;93621.19;5043105;28;20467;-78
2020/12/05 05:31:14;;;;;;;13.47;11.67;;;;;;;0.07;92.02;93613.00;5041817;28;20384;-79
2020/12/05 05:33:44;;;;;;;15.63;12.03;;;;;;;0.03;91.96;93608.34;5025821;28;20317;-78
2020/12/05 05:36:20;;;;;;;13.33;12.13;;;;;;;0.08;92.37;93616.38;5038882;28;20217;-79
2020/12/05 05:39:03;;;;;;;14.00;12.50;;;;;;;0.07;91.85;93613.00;5036850;28;20220;-79
2020/12/05 05:41:31;;;;;;;14.07;12.77;;;;;;;0.03;91.88;93598.75;5041318;28;20493;-79
2020/12/05 05:44:05;;;;;;;12.40;11.17;;;;;;;0.01;92.27;93592.94;5043187;28;20653;-79
2020/12/05 05:46:33;;;;;;;11.87;10.77;;;;;;;0.14;92.34;93608.75;5030076;28;20494;-78
2020/12/05 05:49:01;;;;;;;11.57;10.43;;;;;;;0.23;91.62;93628.47;5022199;28;20325;-78
2020/12/05 05:51:39;;;;;;;9.37;8.57;;;;;;;0.38;91.29;93657.09;5037896;28;20266;-78
2020/12/05 05:54:25;;;;;;;9.97;8.93;;;;;;;0.44;90.83;93673.75;5043265;28;20501;-78
2020/12/05 05:57:07;;;;;;;9.80;8.83;;;;;;;0.48;91.33;93670.66;5040672;28;20326;-78
2020/12/05 05:59:37;;;;;;;8.97;8.07;;;;;;;0.51;90.79;93675.50;5046360;28;20328;-78
2020/12/05 06:02:05;;;;;;;7.77;7.07;;;;;;;0.59;91.06;93679.81;5042710;28;20557;-79
2020/12/05 06:04:35;;;;;;;7.77;7.17;;;;;;;0.63;91.36;93691.47;5046087;28;20230;-78
2020/12/05 06:07:03;;;;;;;8.20;7.47;;;;;;;0.71;90.46;93693.22;5038000;28;20220;-78
2020/12/05 06:09:40;;;;;;;7.80;7.20;;;;;;;0.64;90.62;93692.28;5044331;28;20289;-78
2020/12/05 06:12:10;;;;;;;7.37;6.67;;;;;;;0.61;90.73;93695.22;5041446;28;20903;-78
2020/12/05 06:14:40;;;;;;;6.27;5.53;;;;;;;0.51;90.79;93692.84;5037233;28;20222;-78
2020/12/05 06:17:08;;;;;;;6.80;6.27;;;;;;;0.39;90.90;93663.91;5042003;28;20300;-78
2020/12/05 06:19:35;;;;;;;7.20;6.57;;;;;;;0.35;91.71;93641.03;5044887;28;20258;-78
2020/12/05 06:22:02;;;;;;;5.57;5.10;;;;;;;0.25;92.03;93626.50;5038740;28;20276;-78
2020/12/05 06:24:35;;;;;;;5.60;5.10;;;;;;;0.19;92.46;93595.28;5045130;28;20649;-78
2020/12/05 06:27:02;;;;;;;6.50;5.90;;;;;;;0.10;92.44;93617.84;5040775;28;20245;-78
2020/12/05 06:29:31;;;;;;;5.90;5.47;;;;;;;0.03;92.35;93661.00;5026180;28;20293;-79
2020/12/05 06:31:59;;;;;;;8.17;6.97;;;;;;;-0.06;92.70;93708.66;5040498;28;20935;-78
2020/12/05 06:34:34;;;;;;;7.77;7.10;;;;;;;-0.09;93.27;93745.28;5056943;28;20307;-78
2020/12/05 06:37:01;;;;;;;6.57;6.07;;;;;;;-0.14;93.34;93761.34;5039548;28;20718;-80
2020/12/05 06:39:28;;;;;;;5.73;5.23;;;;;;;-0.08;93.69;93757.28;5039945;28;20231;-79
2020/12/05 06:41:56;;;;;;;5.33;4.90;;;;;;;-0.08;94.01;93763.28;5039216;28;20252;-80
2020/12/05 06:44:24;;;;;;;4.60;4.37;;;;;;;-0.09;94.46;93779.81;5037744;28;20249;-79
2020/12/05 06:46:56;;;;;;;6.00;5.50;;;;;;;-0.06;94.07;93789.03;5046130;28;20220;-80
2020/12/05 06:49:47;;;;;;;5.70;5.27;;;;;;;-0.05;94.49;93806.22;5037890;28;20735;-79
2020/12/05 06:52:40;;;;;;;4.67;4.37;;;;;;;-0.03;94.56;93819.81;5030157;28;20226;-82
2020/12/05 06:55:13;;;;;;;4.33;4.03;;;;;;;0.00;93.62;93824.69;5025809;28;20757;-79
2020/12/05 06:57:42;;;;;;;4.87;4.57;;;;;;;0.01;93.93;93841.88;5035229;28;20299;-79
2020/12/05 07:00:23;;;;;;;3.90;3.60;;;;;;;-0.02;94.10;93824.84;5043384;28;20226;-79
2020/12/05 07:02:55;;;;;;;5.50;5.10;;;;;;;0.08;93.54;93814.28;5039175;28;20226;-80
2020/12/05 07:05:25;;;;;;;4.33;4.03;;;;;;;0.11;93.77;93819.16;5045022;28;20231;-80
2020/12/05 07:07:54;;;;;;;4.23;3.93;;;;;;;0.16;93.52;93809.06;5039188;28;20694;-80
2020/12/05 07:10:22;;;;;;;3.87;3.57;;;;;;;0.12;93.48;93823.38;5038711;28;20329;-80
2020/12/05 07:12:49;;;;;;;4.10;3.80;;;;;;;0.11;94.08;93837.31;5043875;28;20637;-81
2020/12/05 07:15:20;;;;;;;4.10;3.80;;;;;;;0.10;93.74;93855.63;5037285;28;20649;-81
2020/12/05 07:17:47;;;;;;;4.50;4.20;;;;;;;0.09;93.79;93865.19;5043628;28;20304;-81
2020/12/05 07:20:14;;;;;;;4.93;4.53;;;;;;;0.11;93.32;93878.81;5041646;28;20300;-80
2020/12/05 07:22:44;;;;;;;4.17;3.87;;;;;;;0.12;93.95;93901.16;5042212;28;20271;-80
2020/12/05 07:25:11;;;;;;;5.17;4.77;;;;;;;0.26;93.94;93913.47;5042494;28;20229;-81
2020/12/05 07:27:38;;;;;;;6.70;6.10;;;;;;;0.31;93.81;93914.75;5007898;28;20646;-81
2020/12/05 07:30:06;;;;;;;4.37;4.03;;;;;;;0.34;94.06;93919.63;5023954;28;20289;-81
2020/12/05 07:32:34;;;;;;;4.67;4.27;;;;;;;0.36;93.76;93915.06;5007497;28;20301;-81
2020/12/05 07:35:03;;;;;;;5.47;5.07;;;;;;;0.46;93.46;93918.31;5035012;28;20345;-81
2020/12/05 07:37:33;;;;;;;5.03;4.60;;;;;;;0.48;93.90;93911.16;5039901;28;20229;-81
2020/12/05 07:40:03;;;;;;;5.07;4.57;;;;;;;0.51;93.22;93921.22;5034236;28;20229;-82
2020/12/05 07:42:33;;;;;;;6.27;5.80;;;;;;;0.63;93.19;93927.66;5041065;28;20394;-82
2020/12/05 07:45:05;;;;;;;4.97;4.57;;;;;;;0.62;92.78;93910.47;5055988;28;20254;-81
2020/12/05 07:47:32;;;;;;;5.90;5.40;;;;;;;0.65;93.10;93930.13;5041368;28;20290;-82
2020/12/05 07:50:01;;;;;;;5.93;5.43;;;;;;;0.65;93.10;93928.34;5034036;28;20237;-82
2020/12/05 07:52:42;;;;;;;4.57;4.17;;;;;;;0.67;93.49;93935.94;5039164;28;20218;-82
2020/12/05 07:55:11;;;;;;;5.53;5.17;;;;;;;0.73;93.51;93943.88;5026172;28;20234;-82
2020/12/05 07:57:50;;;;;;;4.40;4.10;;;;;;;0.84;93.18;93933.13;5023030;28;20220;-82
2020/12/05 08:00:19;;;;;;;5.30;4.90;;;;;;;0.85;92.46;93936.53;5047496;28;20236;-82
2020/12/05 08:02:53;;;;;;;5.97;5.57;;;;;;;0.90;92.29;93930.84;5043498;28;20254;-82
2020/12/05 08:05:37;;;;;;;3.73;3.43;;;;;;;0.96;91.31;93945.75;5026971;28;20247;-81
2020/12/05 08:08:06;;;;;;;3.83;3.53;;;;;;;1.00;91.54;93947.03;5042979;28;20303;-81
2020/12/05 08:10:34;;;;;;;6.17;5.63;;;;;;;0.95;91.56;93954.53;5043324;28;20699;-81
2020/12/05 08:13:20;;;;;;;4.90;4.40;;;;;;;0.96;91.34;93956.16;5019835;28;20764;-80
2020/12/05 08:15:51;;;;;;;4.93;4.53;;;;;;;0.94;91.63;93973.69;5023654;28;20294;-81
2020/12/05 08:18:20;;;;;;;4.97;4.67;;;;;;;0.94;91.17;93978.88;5040230;28;20337;-81
2020/12/05 08:20:48;;;;;;;4.80;4.37;;;;;;;0.93;92.09;93987.66;5034906;28;20293;-80
2020/12/05 08:23:22;;;;;;;5.00;4.53;;;;;;;0.96;92.42;93989.91;5039693;28;20326;-81
2020/12/05 08:25:52;;;;;;;5.23;4.83;;;;;;;0.96;91.71;93976.91;5016575;28;20241;-81
2020/12/05 08:28:20;;;;;;;3.87;3.57;;;;;;;0.95;91.96;93970.91;5039313;28;20659;-81
2020/12/05 08:30:48;;;;;;;5.30;4.90;;;;;;;0.98;91.47;93974.97;5043613;28;20239;-81
2020/12/05 08:33:15;;;;;;;5.80;5.40;;;;;;;0.96;92.02;93975.13;5044657;28;20221;-81
2020/12/05 08:35:43;;;;;;;5.63;5.13;;;;;;;0.97;91.62;93970.75;5038285;28;20306;-80
2020/12/05 08:38:14;;;;;;;3.93;3.63;;;;;;;0.98;91.89;93980.97;5042555;28;20707;-80
2020/12/05 08:40:42;;;;;;;5.60;5.20;;;;;;;1.02;91.70;93991.84;5009000;28;20234;-81
2020/12/05 08:43:11;;;;;;;8.10;7.23;;;;;;;1.06;91.46;93998.31;5040758;28;20269;-80
2020/12/05 08:45:39;;;;;;;12.60;11.40;;;;;;;1.13;91.45;94009.66;5043215;28;20245;-81
2020/12/05 08:48:17;;;;;;;11.87;10.63;;;;;;;1.11;90.99;94006.44;5044180;28;20682;-81
2020/12/05 08:50:46;;;;;;;9.17;8.37;;;;;;;1.06;91.56;94006.91;5042196;28;20607;-80
2020/12/05 08:53:15;;;;;;;8.37;7.67;;;;;;;1.09;91.45;94005.78;5010331;28;20311;-80
2020/12/05 08:55:47;;;;;;;8.00;7.30;;;;;;;1.09;91.72;94013.56;5051336;28;20216;-81
2020/12/05 08:58:15;;;;;;;7.73;7.13;;;;;;;1.11;91.65;94022.03;5042457;28;20309;-81
2020/12/05 09:00:42;;;;;;;7.80;7.10;;;;;;;1.13;91.38;94035.66;5046079;28;20213;-81
2020/12/05 09:03:19;;;;;;;6.73;6.13;;;;;;;1.17;91.60;94021.34;5046252;28;20318;-81
2020/12/05 09:05:48;;;;;;;7.67;6.97;;;;;;;1.20;92.42;94025.41;5037495;28;20309;-81
2020/12/05 09:08:20;;;;;;;10.83;8.60;;;;;;;1.22;91.96;94000.88;5042632;28;20261;-81
2020/12/05 09:10:47;;;;;;;8.33;7.63;;;;;;;1.24;91.98;94009.31;5027647;28;20223;-81
2020/12/05 09:13:15;;;;;;;8.20;7.40;;;;;;;1.25;91.41;94016.13;5024107;28;20461;-81
2020/12/05 09:15:59;;;;;;;9.77;8.77;;;;;;;1.28;91.17;94007.16;5037707;28;20771;-81
2020/12/05 09:18:26;;;;;;;10.37;9.37;;;;;;;1.32;91.32;94024.88;5042768;28;20368;-81
2020/12/05 09:20:53;;;;;;;11.47;10.27;;;;;;;1.35;91.29;94029.72;5042670;28;20297;-80
2020/12/05 09:23:30;;;;;;;11.13;10.13;;;;;;;1.36;91.17;94004.53;5045183;28;20304;-81
2020/12/05 09:26:02;;;;;;;10.20;9.27;;;;;;;1.33;91.35;94008.28;5028884;28;20223;-80
2020/12/05 09:28:31;;;;;;;8.87;8.10;;;;;;;1.39;91.13;94020.63;5043424;28;20762;-81
2020/12/05 09:30:58;;;;;;;13.03;11.47;;;;;;;1.46;90.49;94025.13;5044961;28;20231;-81
2020/12/05 09:33:25;;;;;;;12.17;10.93;;;;;;;1.49;90.61;94037.81;5045755;28;20319;-80
2020/12/05 09:35:53;;;;;;;17.20;15.40;;;;;;;1.53;90.56;94036.47;5045693;28;20223;-81
2020/12/05 09:38:20;;;;;;;14.87;13.43;;;;;;;1.52;90.86;94035.69;5044786;28;20687;-80
2020/12/05 09:40:47;;;;;;;16.70;13.73;;;;;;;1.58;90.74;94040.22;5047170;28;20310;-80
2020/12/05 09:43:14;;;;;;;16.80;15.07;;;;;;;1.62;90.35;94030.28;5045616;28;20285;-81
2020/12/05 09:45:43;;;;;;;10.80;9.77;;;;;;;1.74;89.83;94026.34;5025322;28;20296;-81
2020/12/05 09:48:10;;;;;;;7.60;6.90;;;;;;;1.74;89.79;94018.53;5038407;28;20289;-80
2020/12/05 09:50:37;;;;;;;7.87;7.27;;;;;;;1.77;89.14;94010.38;5046510;28;20309;-81
2020/12/05 09:53:04;;;;;;;13.80;12.40;;;;;;;1.74;89.47;94010.72;5044388;28;20305;-80
2020/12/05 09:55:31;;;;;;;16.80;15.10;;;;;;;1.74;88.95;94023.75;5041455;28;20276;-81
2020/12/05 09:57:59;;;;;;;12.80;11.67;;;;;;;1.75;89.22;94025.34;5039755;28;20543;-81
2020/12/05 10:00:26;;;;;;;10.53;9.70;;;;;;;1.71;88.89;94024.06;5042306;28;20771;-81
2020/12/05 10:02:54;;;;;;;9.97;9.27;;;;;;;1.67;89.42;94023.59;5043986;28;20280;-81
2020/12/05 10:05:21;;;;;;;9.33;8.60;;;;;;;1.66;89.35;94031.56;5043318;28;20254;-81
2020/12/05 10:07:48;;;;;;;8.07;7.57;;;;;;;1.67;89.43;94046.19;5042664;28;20299;-81
2020/12/05 10:10:15;;;;;;;10.03;9.03;;;;;;;1.67;89.27;94052.19;5027526;28;20314;-81
2020/12/05 10:12:44;;;;;;;9.33;8.37;;;;;;;1.66;89.45;94047.16;5040506;28;20270;-80
2020/12/05 10:15:12;;;;;;;7.83;7.23;;;;;;;1.66;89.39;94044.56;5041792;28;20223;-81
2020/12/05 10:17:40;;;;;;;6.43;5.93;;;;;;;1.73;88.67;94040.28;5045954;28;20317;-81
2020/12/05 10:20:09;;;;;;;5.37;4.97;;;;;;;1.66;89.19;94047.97;5020269;28;20302;-81
2020/12/05 10:22:37;;;;;;;6.37;5.87;;;;;;;1.70;88.26;94044.06;5046567;28;20485;-81
2020/12/05 10:25:05;;;;;;;10.13;9.13;;;;;;;1.77;88.01;94052.00;5043190;28;20306;-81
2020/12/05 10:27:32;;;;;;;9.57;8.77;;;;;;;1.76;88.49;94039.97;5027870;28;20248;-81
2020/12/05 10:29:59;;;;;;;10.80;9.90;;;;;;;1.85;88.90;94057.16;5062240;28;20296;-81
2020/12/05 10:32:26;;;;;;;7.53;6.93;;;;;;;1.80;87.48;94056.84;5047721;28;20306;-81
2020/12/05 10:34:53;;;;;;;5.63;5.13;;;;;;;1.79;88.24;94044.81;5027256;28;20301;-81
2020/12/05 10:37:21;;;;;;;7.07;6.47;;;;;;;1.81;88.15;94050.66;5044567;28;20637;-82
2020/12/05 10:39:47;;;;;;;6.70;6.20;;;;;;;1.77;88.94;94059.78;5047476;28;20245;-81
2020/12/05 10:42:14;;;;;;;8.93;8.23;;;;;;;1.77;88.46;94054.59;5037274;28;20223;-81
2020/12/05 10:44:41;;;;;;;9.70;8.73;;;;;;;1.83;88.78;94053.91;5026165;28;20304;-81
2020/12/05 10:47:08;;;;;;;11.70;10.53;;;;;;;1.87;88.10;94054.38;5041816;28;20321;-82
2020/12/05 10:49:35;;;;;;;11.60;9.67;;;;;;;1.85;88.31;94049.34;5048168;28;20355;-81
2020/12/05 10:52:02;;;;;;;10.93;9.33;;;;;;;1.83;88.28;94053.91;5040231;28;20299;-81
2020/12/05 10:54:31;;;;;;;11.27;10.13;;;;;;;1.81;88.06;94060.25;5041365;28;20239;-81
2020/12/05 10:57:00;;;;;;;11.93;10.33;;;;;;;1.81;87.74;94058.47;5047755;28;20355;-81
2020/12/05 10:59:27;;;;;;;12.50;9.33;;;;;;;1.81;88.52;94050.66;5042121;28;20234;-81
2020/12/05 11:01:55;;;;;;;49.73;23.70;;;;;;;1.84;88.75;94049.53;5030020;28;20320;-83
2020/12/05 11:04:22;;;;;;;86.50;47.60;;;;;;;1.91;88.13;94051.25;5043842;28;20695;-81
2020/12/05 11:06:49;;;;;;;106.67;61.27;;;;;;;1.93;88.67;94043.31;5025619;28;20239;-82
2020/12/05 11:09:15;;;;;;;64.33;36.13;;;;;;;1.95;87.96;94049.94;5036230;28;20310;-82
2020/12/05 11:11:45;;;;;;;60.00;32.37;;;;;;;1.97;88.62;94050.59;5029098;28;20231;-81
2020/12/05 11:14:12;;;;;;;29.43;19.87;;;;;;;1.96;87.68;94048.97;5029032;28;20285;-81
2020/12/05 11:16:38;;;;;;;35.70;25.70;;;;;;;1.93;87.83;94051.09;5041185;28;20211;-81
2020/12/05 11:19:05;;;;;;;27.60;20.30;;;;;;;1.88;87.55;94056.81;5043124;28;20242;-82
2020/12/05 11:21:32;;;;;;;16.57;14.00;;;;;;;1.92;88.00;94042.50;5044950;28;20620;-82
2020/12/05 11:24:00;;;;;;;10.60;9.53;;;;;;;2.02;87.62;94041.47;5028392;28;20261;-81
2020/12/05 11:26:27;;;;;;;9.90;8.87;;;;;;;1.99;87.40;94038.22;5045163;28;20394;-82
2020/12/05 11:28:55;;;;;;;9.40;8.60;;;;;;;1.94;87.85;94044.94;5043650;28;20404;-82
2020/12/05 11:31:22;;;;;;;9.00;8.23;;;;;;;1.94;88.19;94045.72;5046005;28;20313;-82
2020/12/05 11:33:49;;;;;;;6.60;6.10;;;;;;;1.97;87.42;94040.19;5043854;28;20312;-82
2020/12/05 11:36:16;;;;;;;6.60;6.00;;;;;;;1.97;87.89;94047.97;5041312;28;20242;-80